Time;durP1;ratioP1;P1;durP2;ratioP2;P2;SDS_P1;SDS_P2;PMS_P1;PMS_P2;Temp;Humidity;BMP_temperature;BMP_pressure;BME280_temperature;BME280_humidity;BME280_pressure;Samples;Min_cycle;Max_cycle;Signal;HPM_P1;HPM_P2
2023/03/09 00:01:44;;;;;;;1.52;0.60;;;;;;;9.80;79.56;94415.28;4974546;28;20061;-75
2023/03/09 00:04:14;;;;;;;1.88;0.68;;;;;;;9.80;79.79;94404.88;4974696;28;20480;-76
2023/03/09 00:06:42;;;;;;;1.02;0.85;;;;;;;9.80;79.40;94394.47;4974294;28;20465;-76
2023/03/09 00:09:13;;;;;;;3.20;1.90;;;;;;;9.79;79.93;94392.88;4973664;28;20061;-76
2023/03/09 00:11:41;;;;;;;2.25;1.15;;;;;;;9.77;79.42;94370.69;4973978;28;20149;-75
2023/03/09 00:14:08;;;;;;;1.58;1.10;;;;;;;9.77;79.41;94368.88;4966924;28;20218;-76
2023/03/09 00:16:38;;;;;;;1.65;0.88;;;;;;;9.77;79.45;94353.25;4974512;28;20047;-76
2023/03/09 00:19:06;;;;;;;1.75;1.05;;;;;;;9.80;79.25;94347.59;4973208;28;20057;-75
2023/03/09 00:21:39;;;;;;;3.45;1.40;;;;;;;9.81;78.82;94343.97;4993478;28;20043;-76
2023/03/09 00:24:09;;;;;;;6.25;2.28;;;;;;;9.83;78.73;94341.13;4984211;28;20051;-76
2023/03/09 00:26:39;;;;;;;5.95;2.78;;;;;;;9.84;78.98;94333.09;4974257;28;20136;-76
2023/03/09 00:29:08;;;;;;;4.13;1.60;;;;;;;9.84;78.64;94322.69;4973442;28;20131;-76
2023/03/09 00:31:36;;;;;;;2.78;1.52;;;;;;;9.85;78.68;94323.47;4973567;28;20081;-76
2023/03/09 00:34:04;;;;;;;1.75;1.25;;;;;;;9.85;78.58;94326.84;4973705;28;20050;-75
2023/03/09 00:36:32;;;;;;;2.28;0.95;;;;;;;9.88;78.51;94323.81;4973567;28;20055;-76
2023/03/09 00:39:00;;;;;;;1.52;0.88;;;;;;;9.89;78.47;94311.56;4974003;28;20055;-76
2023/03/09 00:41:30;;;;;;;1.70;0.90;;;;;;;9.89;78.56;94314.94;4975201;28;20505;-76
2023/03/09 00:44:00;;;;;;;2.42;0.90;;;;;;;9.92;78.68;94320.72;4973775;28;20054;-76
2023/03/09 00:46:29;;;;;;;3.00;0.68;;;;;;;9.92;78.49;94307.69;4974055;28;20050;-76
2023/03/09 00:48:57;;;;;;;1.88;0.70;;;;;;;9.92;78.45;94315.50;4972806;28;20082;-76
2023/03/09 00:51:25;;;;;;;3.80;1.25;;;;;;;9.90;78.71;94324.34;4973587;28;20057;-75
2023/03/09 00:53:53;;;;;;;3.40;1.00;;;;;;;9.88;78.73;94323.81;4972990;28;20134;-76
2023/03/09 00:56:29;;;;;;;1.67;0.90;;;;;;;9.87;79.11;94337.81;4972641;28;20161;-76
2023/03/09 00:58:59;;;;;;;3.75;0.75;;;;;;;9.85;79.30;94360.69;4972978;28;20047;-76
2023/03/09 01:01:27;;;;;;;1.48;0.70;;;;;;;9.82;79.15;94402.84;4979295;28;20057;-76
2023/03/09 01:03:55;;;;;;;0.57;0.30;;;;;;;9.80;78.93;94399.66;4973009;28;20097;-76
2023/03/09 01:06:23;;;;;;;0.68;0.38;;;;;;;9.78;79.06;94390.50;4973434;28;20126;-75
2023/03/09 01:08:51;;;;;;;5.43;1.33;;;;;;;9.75;79.24;94396.16;4972740;28;20057;-76
2023/03/09 01:11:19;;;;;;;2.38;0.65;;;;;;;9.72;79.53;94381.81;4973214;28;20109;-76
2023/03/09 01:13:46;;;;;;;2.45;0.50;;;;;;;9.70;79.79;94399.47;4973284;28;20054;-76
2023/03/09 01:16:16;;;;;;;1.95;1.08;;;;;;;9.71;79.99;94406.25;4972992;28;20137;-76
2023/03/09 01:18:43;;;;;;;0.75;0.50;;;;;;;9.72;79.79;94422.66;4971949;28;20051;-76
2023/03/09 01:21:11;;;;;;;1.85;0.63;;;;;;;9.72;79.86;94427.88;4989936;28;20150;-76
2023/03/09 01:23:40;;;;;;;1.17;0.30;;;;;;;9.74;79.73;94434.44;4987787;28;20050;-76
2023/03/09 01:26:08;;;;;;;2.35;0.35;;;;;;;9.75;79.77;94422.19;4973248;28;20051;-76
2023/03/09 01:28:36;;;;;;;1.55;0.60;;;;;;;9.79;79.78;94418.91;4972614;28;20412;-76
2023/03/09 01:31:07;;;;;;;5.95;0.43;;;;;;;9.81;79.71;94432.47;4972492;28;20062;-76
2023/03/09 01:33:36;;;;;;;0.30;0.30;;;;;;;9.80;79.14;94441.34;4973167;28;20055;-76
2023/03/09 01:36:06;;;;;;;0.63;0.30;;;;;;;9.77;79.09;94431.34;4978709;28;20051;-77
2023/03/09 01:38:34;;;;;;;2.05;0.30;;;;;;;9.77;78.52;94444.38;4984361;28;20051;-77
2023/03/09 01:41:02;;;;;;;1.10;0.68;;;;;;;9.77;78.85;94433.97;4979575;28;20412;-76
2023/03/09 01:43:34;;;;;;;0.90;0.20;;;;;;;9.76;78.47;94440.19;4972411;28;20057;-76
2023/03/09 01:46:54;;;;;;;0.43;0.40;;;;;;;9.75;78.47;94450.84;4972961;28;20509;-77
2023/03/09 01:49:29;;;;;;;2.25;1.40;;;;;;;9.72;77.89;94452.09;4960065;28;20520;-76
2023/03/09 01:52:02;;;;;;;0.20;0.20;;;;;;;9.72;77.61;94451.31;4972306;28;20058;-75
2023/03/09 01:54:36;;;;;;;0.25;0.20;;;;;;;9.72;77.77;94452.09;4972121;28;20055;-76
2023/03/09 01:57:09;;;;;;;0.80;0.20;;;;;;;9.71;77.83;94453.13;4973119;28;20050;-77
2023/03/09 01:59:38;;;;;;;0.38;0.28;;;;;;;9.70;77.57;94456.72;4974940;28;20042;-76
2023/03/09 02:02:07;;;;;;;1.95;0.13;;;;;;;9.69;77.38;94450.75;4976718;28;20057;-76
2023/03/09 02:04:42;;;;;;;0.77;0.20;;;;;;;9.67;77.24;94431.16;4972818;28;20065;-77
2023/03/09 02:07:10;;;;;;;0.65;0.38;;;;;;;9.65;77.18;94438.41;4973715;28;20146;-76
2023/03/09 02:09:42;;;;;;;0.93;0.10;;;;;;;9.64;76.92;94447.22;4976123;28;20046;-76
2023/03/09 02:12:12;;;;;;;0.10;0.00;;;;;;;9.63;77.21;94471.69;4976257;28;20157;-76
2023/03/09 02:14:40;;;;;;;0.55;0.20;;;;;;;9.59;76.91;94442.72;4976735;28;20051;-76
2023/03/09 02:17:11;;;;;;;1.10;0.10;;;;;;;9.57;77.31;94446.56;4976458;28;20047;-76
2023/03/09 02:19:54;;;;;;;0.20;0.10;;;;;;;9.56;77.08;94460.63;4980577;28;20572;-76
2023/03/09 02:22:21;;;;;;;;;;;;;;;9.58;77.20;94458.56;4996424;28;20428;-76
2023/03/09 02:25:00;;;;;;;0.10;0.10;;;;;;;9.52;76.25;94452.47;4979566;28;19968;-77
2023/03/09 02:27:31;;;;;;;0.47;0.20;;;;;;;9.49;76.83;94439.91;4976652;28;20190;-77
2023/03/09 02:29:59;;;;;;;0.45;0.10;;;;;;;9.47;76.81;94437.53;4975754;28;20072;-76
2023/03/09 02:32:29;;;;;;;0.45;0.10;;;;;;;9.47;76.64;94439.34;4975804;28;20058;-76
2023/03/09 02:34:56;;;;;;;1.13;0.20;;;;;;;9.46;76.95;94451.53;4976447;28;20637;-77
2023/03/09 02:37:27;;;;;;;0.28;0.10;;;;;;;9.46;76.73;94456.75;4975905;28;20059;-76
2023/03/09 02:39:57;;;;;;;1.38;0.20;;;;;;;9.45;76.78;94449.97;4975632;28;20077;-76
2023/03/09 02:42:26;;;;;;;2.58;0.10;;;;;;;9.46;76.42;94455.97;4975637;28;20050;-76
2023/03/09 02:44:56;;;;;;;0.88;0.43;;;;;;;9.46;76.30;94459.34;4975974;28;20675;-76
2023/03/09 02:47:24;;;;;;;0.17;0.10;;;;;;;9.45;76.36;94451.78;4976234;28;20051;-76
2023/03/09 02:49:52;;;;;;;2.10;0.10;;;;;;;9.42;75.95;94460.84;4974858;28;20311;-76
2023/03/09 02:52:19;;;;;;;0.40;0.10;;;;;;;9.42;76.05;94428.81;4975944;28;20056;-76
2023/03/09 02:54:47;;;;;;;0.10;0.10;;;;;;;9.37;76.02;94424.28;4975610;28;20058;-76
2023/03/09 02:57:14;;;;;;;0.28;0.10;;;;;;;9.34;76.24;94424.75;4975638;28;20055;-76
2023/03/09 02:59:42;;;;;;;0.10;0.10;;;;;;;9.31;76.21;94409.56;4978761;28;20057;-76
2023/03/09 03:02:11;;;;;;;0.38;0.10;;;;;;;9.29;76.46;94414.22;4983994;28;20165;-76
2023/03/09 03:04:38;;;;;;;0.40;0.03;;;;;;;9.28;76.40;94410.81;4975697;28;20420;-75
2023/03/09 03:07:06;;;;;;;0.20;0.10;;;;;;;9.28;75.79;94408.22;4975302;28;20050;-76
2023/03/09 03:09:33;;;;;;;0.68;0.05;;;;;;;9.28;75.77;94425.66;4974723;28;20131;-76
2023/03/09 03:12:01;;;;;;;0.10;0.00;;;;;;;9.26;75.53;94414.69;4975955;28;20057;-75
2023/03/09 03:14:29;;;;;;;1.15;0.10;;;;;;;9.26;75.78;94425.09;4974698;28;20051;-76
2023/03/09 03:16:56;;;;;;;0.40;0.10;;;;;;;9.24;75.78;94427.13;4975716;28;20054;-76
2023/03/09 03:19:26;;;;;;;0.20;0.10;;;;;;;9.21;75.11;94410.16;4973173;28;20096;-76
2023/03/09 03:21:54;;;;;;;0.65;0.10;;;;;;;9.22;75.36;94434.34;4975714;28;20475;-76
2023/03/09 03:24:21;;;;;;;0.32;0.10;;;;;;;9.22;75.11;94434.34;4975071;28;20057;-77
2023/03/09 03:26:49;;;;;;;0.25;0.20;;;;;;;9.23;75.15;94446.38;4975345;28;20482;-76
2023/03/09 03:29:17;;;;;;;0.40;0.10;;;;;;;9.23;75.49;94446.38;4974663;28;20476;-76
2023/03/09 03:31:44;;;;;;;0.15;0.10;;;;;;;9.22;75.46;94449.97;4996361;28;20085;-76
2023/03/09 03:34:12;;;;;;;0.10;0.10;;;;;;;9.22;74.67;94461.16;4995211;28;20054;-76
2023/03/09 03:36:41;;;;;;;1.17;0.20;;;;;;;9.22;75.21;94457.78;4995250;28;20131;-76
2023/03/09 03:39:08;;;;;;;0.60;0.25;;;;;;;9.23;74.96;94461.97;4994502;28;20114;-75
2023/03/09 03:41:36;;;;;;;1.02;0.10;;;;;;;9.23;75.19;94482.78;4979718;28;20051;-76
2023/03/09 03:44:04;;;;;;;0.47;0.13;;;;;;;9.21;74.75;94480.41;4974511;28;20058;-76
2023/03/09 03:46:31;;;;;;;0.32;0.20;;;;;;;9.22;75.03;94487.16;4975044;28;20057;-76
2023/03/09 03:48:59;;;;;;;0.05;0.05;;;;;;;9.23;75.17;94483.56;4973742;28;20047;-78
2023/03/09 03:51:26;;;;;;;0.30;0.10;;;;;;;9.23;75.39;94520.00;4974631;28;20046;-78
2023/03/09 03:53:55;;;;;;;0.80;0.10;;;;;;;9.25;75.67;94504.94;4974188;28;20047;-78
2023/03/09 03:56:23;;;;;;;0.85;0.20;;;;;;;9.23;75.66;94514.00;4974602;28;20480;-78
2023/03/09 03:58:50;;;;;;;0.95;0.20;;;;;;;9.23;75.84;94524.41;4974038;28;20493;-78
2023/03/09 04:01:18;;;;;;;0.55;0.30;;;;;;;9.23;75.90;94566.03;4974195;28;20133;-78
2023/03/09 04:03:45;;;;;;;1.02;0.10;;;;;;;9.24;75.90;94552.00;4975077;28;20055;-78
2023/03/09 04:06:13;;;;;;;1.23;0.20;;;;;;;9.23;75.99;94566.03;4974618;28;20055;-78
2023/03/09 04:08:41;;;;;;;0.38;0.15;;;;;;;9.22;76.26;94611.25;4974130;28;20129;-78
2023/03/09 04:11:10;;;;;;;1.60;0.20;;;;;;;9.22;76.34;94616.44;4974729;28;20146;-78
2023/03/09 04:13:37;;;;;;;0.13;0.10;;;;;;;9.19;76.08;94632.50;4974083;28;20057;-77
2023/03/09 04:16:05;;;;;;;0.70;0.10;;;;;;;9.15;76.49;94626.16;4975029;28;20424;-78
2023/03/09 04:18:33;;;;;;;0.25;0.13;;;;;;;9.12;75.98;94610.97;4973894;28;20058;-78
2023/03/09 04:21:00;;;;;;;0.90;0.10;;;;;;;9.08;75.93;94616.63;4990246;28;20420;-78
2023/03/09 04:23:28;;;;;;;0.90;0.10;;;;;;;9.04;76.15;94633.69;5000999;28;20050;-78
2023/03/09 04:25:56;;;;;;;0.10;0.00;;;;;;;9.05;76.12;94637.09;4994066;28;20264;-78
2023/03/09 04:28:25;;;;;;;0.20;0.13;;;;;;;9.04;76.23;94635.50;4987974;28;20081;-78
2023/03/09 04:30:53;;;;;;;0.20;0.10;;;;;;;9.02;76.10;94643.53;4988013;28;20137;-79
2023/03/09 04:33:21;;;;;;;0.30;0.20;;;;;;;9.01;76.36;94644.53;4982175;28;20050;-78
2023/03/09 04:35:48;;;;;;;0.45;0.10;;;;;;;9.01;76.59;94647.16;4974625;28;20062;-78
2023/03/09 04:38:16;;;;;;;0.20;0.20;;;;;;;8.98;76.64;94652.78;4973871;28;20054;-77
2023/03/09 04:40:44;;;;;;;1.08;0.20;;;;;;;8.99;76.77;94669.97;4973968;28;20046;-77
2023/03/09 04:43:11;;;;;;;1.42;0.50;;;;;;;8.98;76.72;94678.00;4973921;28;20153;-78
2023/03/09 04:45:40;;;;;;;1.40;0.30;;;;;;;8.97;77.26;94692.00;4974439;28;20065;-77
2023/03/09 04:48:08;;;;;;;1.33;0.40;;;;;;;8.97;77.37;94700.59;4973333;28;20134;-79
2023/03/09 04:50:35;;;;;;;0.63;0.20;;;;;;;8.96;77.22;94709.41;4973412;28;20071;-77
2023/03/09 05:03:52;;;;;;;0.57;0.20;;;;;;;8.86;77.79;94717.72;5750404;22;20316;-77
2023/03/09 05:06:19;;;;;;;1.58;0.40;;;;;;;8.86;78.17;94716.94;5006940;28;20148;-78
2023/03/09 05:08:47;;;;;;;0.65;0.40;;;;;;;8.86;78.08;94715.13;5012374;28;20050;-78
2023/03/09 05:11:15;;;;;;;1.85;0.30;;;;;;;8.86;78.11;94717.72;5012388;28;20488;-77
2023/03/09 05:13:42;;;;;;;0.45;0.45;;;;;;;8.85;78.09;94734.34;4996895;28;20144;-78
2023/03/09 05:16:10;;;;;;;1.17;0.57;;;;;;;8.84;78.04;94735.34;5012922;28;20061;-77
2023/03/09 05:18:37;;;;;;;1.92;0.52;;;;;;;8.85;78.00;94736.13;5012039;28;20049;-78
2023/03/09 05:21:08;;;;;;;1.70;0.50;;;;;;;8.83;77.75;94748.56;4996672;28;20046;-77
2023/03/09 05:23:35;;;;;;;2.53;0.77;;;;;;;8.79;77.64;94756.00;5007499;28;20135;-77
2023/03/09 05:26:07;;;;;;;3.33;1.15;;;;;;;8.78;77.97;94751.81;5013125;28;20073;-78
2023/03/09 05:28:34;;;;;;;3.40;0.98;;;;;;;8.77;77.73;94765.03;5011726;28;20049;-78
2023/03/09 05:31:02;;;;;;;5.40;1.63;;;;;;;8.76;77.18;94760.84;5012769;28;20490;-78
2023/03/09 05:33:30;;;;;;;5.25;0.90;;;;;;;8.76;77.41;94769.41;5012646;28;20508;-78
2023/03/09 05:35:58;;;;;;;3.85;0.95;;;;;;;8.76;77.53;94782.41;5011965;28;20081;-78
2023/03/09 05:38:26;;;;;;;4.10;0.85;;;;;;;8.75;77.41;94793.03;5011621;28;20104;-77
2023/03/09 05:40:54;;;;;;;5.90;0.88;;;;;;;8.74;77.16;94791.44;5012286;28;20417;-78
2023/03/09 05:43:21;;;;;;;6.55;0.88;;;;;;;8.72;77.40;94794.25;5012150;28;20049;-78
2023/03/09 05:45:54;;;;;;;3.45;1.33;;;;;;;8.72;77.41;94803.84;5012320;28;20056;-78
2023/03/09 05:48:22;;;;;;;4.55;1.10;;;;;;;8.72;77.26;94812.44;5011417;28;20504;-78
2023/03/09 05:50:50;;;;;;;4.15;1.13;;;;;;;8.72;76.79;94817.63;5012284;28;20081;-78
2023/03/09 05:53:17;;;;;;;9.68;1.13;;;;;;;8.72;76.81;94814.25;5011683;28;20061;-78
2023/03/09 05:55:52;;;;;;;4.15;1.50;;;;;;;8.72;76.81;94816.84;5012379;28;20050;-78
2023/03/09 05:58:20;;;;;;;6.35;1.45;;;;;;;8.71;76.55;94821.25;5011314;28;20125;-78
2023/03/09 06:00:47;;;;;;;3.88;1.40;;;;;;;8.70;76.56;94826.66;4999534;28;20050;-78
2023/03/09 06:03:15;;;;;;;4.70;1.30;;;;;;;8.70;76.54;94844.88;4992894;28;20081;-78
2023/03/09 06:05:42;;;;;;;30.10;16.63;;;;;;;8.68;75.82;94844.28;5002451;28;20129;-78
2023/03/09 06:08:10;;;;;;;47.40;22.98;;;;;;;8.66;75.85;94847.91;5006129;28;20069;-77
2023/03/09 06:10:38;;;;;;;9.50;3.30;;;;;;;8.67;76.07;94851.28;4983874;28;20130;-79
2023/03/09 06:13:07;;;;;;;8.05;2.00;;;;;;;8.66;76.74;94863.50;5004383;28;20118;-77
2023/03/09 06:15:38;;;;;;;8.88;1.40;;;;;;;8.62;76.05;94880.53;4991614;28;20519;-77
2023/03/09 06:18:06;;;;;;;6.68;1.48;;;;;;;8.55;76.24;94882.38;4992777;28;20513;-78
2023/03/09 06:20:33;;;;;;;3.58;1.17;;;;;;;8.51;76.05;94891.59;4973316;28;20074;-77
2023/03/09 06:23:01;;;;;;;4.00;1.20;;;;;;;8.46;75.80;94894.00;4979787;28;20060;-76
2023/03/09 06:25:28;;;;;;;5.47;1.50;;;;;;;8.43;75.50;94910.03;5010379;28;20054;-77
2023/03/09 06:27:56;;;;;;;6.82;2.33;;;;;;;8.41;75.50;94906.84;5003755;28;20062;-77
2023/03/09 06:30:26;;;;;;;5.50;1.75;;;;;;;8.38;75.20;94913.22;4990085;28;20417;-76
2023/03/09 06:32:53;;;;;;;7.15;2.17;;;;;;;8.39;75.75;94919.22;4991132;28;20058;-76
2023/03/09 06:35:21;;;;;;;9.88;2.17;;;;;;;8.37;75.63;94923.81;4976583;28;20047;-75
2023/03/09 06:37:49;;;;;;;8.15;1.90;;;;;;;8.37;75.36;94919.41;4989921;28;20055;-76
2023/03/09 06:40:17;;;;;;;6.95;1.70;;;;;;;8.37;75.41;94927.22;4988531;28;20039;-79
2023/03/09 06:42:46;;;;;;;10.32;1.52;;;;;;;8.38;75.10;94925.44;4975953;28;20050;-77
2023/03/09 06:45:13;;;;;;;6.25;2.08;;;;;;;8.36;75.60;94932.63;4995434;28;20043;-77
2023/03/09 06:47:42;;;;;;;4.57;1.67;;;;;;;8.39;75.84;94934.81;4973231;28;20061;-76
2023/03/09 06:50:10;;;;;;;7.72;1.80;;;;;;;8.44;75.84;94935.81;4986647;28;20129;-77
2023/03/09 06:52:38;;;;;;;7.95;2.15;;;;;;;8.53;75.64;94940.78;5000120;28;20053;-77
2023/03/09 06:55:07;;;;;;;7.28;2.55;;;;;;;8.60;75.12;94950.09;4975506;28;20053;-76
2023/03/09 06:57:43;;;;;;;6.65;1.73;;;;;;;8.72;74.31;94944.22;4993173;28;20046;-76
2023/03/09 07:00:12;;;;;;;5.10;1.42;;;;;;;8.80;74.14;94946.59;5009964;28;20068;-76
2023/03/09 07:02:40;;;;;;;5.53;1.33;;;;;;;8.85;74.21;94951.94;4997574;28;20391;-76
2023/03/09 07:05:10;;;;;;;11.88;1.90;;;;;;;8.89;74.11;94940.09;4992513;28;20138;-75
2023/03/09 07:07:37;;;;;;;8.18;1.50;;;;;;;8.94;73.62;94942.06;4978549;28;20134;-75
2023/03/09 07:10:06;;;;;;;6.40;1.63;;;;;;;9.03;73.95;94939.00;5000127;28;20065;-77
2023/03/09 07:12:33;;;;;;;8.60;2.08;;;;;;;9.14;73.57;94947.94;4987630;28;20066;-76
2023/03/09 07:15:01;;;;;;;6.72;1.92;;;;;;;9.23;73.41;94956.25;4986861;28;20050;-76
2023/03/09 07:17:29;;;;;;;6.65;1.15;;;;;;;9.32;73.45;94960.19;4990171;28;20047;-76
2023/03/09 07:19:57;;;;;;;6.20;2.50;;;;;;;9.39;72.50;94953.09;4996295;28;20046;-75
2023/03/09 07:22:26;;;;;;;6.50;1.65;;;;;;;9.53;72.70;94960.78;4977432;28;20055;-76
2023/03/09 07:24:54;;;;;;;6.05;1.88;;;;;;;9.64;72.61;94962.66;4997687;28;20050;-76
2023/03/09 07:27:22;;;;;;;7.00;1.90;;;;;;;9.70;72.47;94964.41;4994700;28;20133;-76
2023/03/09 07:29:49;;;;;;;7.75;1.45;;;;;;;9.77;71.93;94979.97;4991563;28;20050;-74
2023/03/09 07:32:17;;;;;;;8.90;1.70;;;;;;;9.84;71.18;94978.91;4982320;28;20050;-75
2023/03/09 07:34:44;;;;;;;5.72;2.05;;;;;;;9.88;71.06;94972.25;4981460;28;20043;-75
2023/03/09 07:37:12;;;;;;;7.18;1.80;;;;;;;9.97;70.96;94987.56;4993352;28;20056;-75
2023/03/09 07:39:41;;;;;;;4.65;1.40;;;;;;;10.14;70.83;94991.19;4995947;28;20050;-76
2023/03/09 07:42:08;;;;;;;9.13;2.10;;;;;;;10.31;71.16;95001.84;4981313;28;20482;-75
2023/03/09 07:44:36;;;;;;;6.35;2.13;;;;;;;10.49;71.15;95006.22;5013554;28;20164;-75
2023/03/09 07:47:04;;;;;;;5.78;1.30;;;;;;;10.70;70.98;95010.19;4990679;28;20063;-76
2023/03/09 07:49:31;;;;;;;6.47;1.23;;;;;;;10.82;69.83;95010.22;5006797;28;20132;-76
2023/03/09 07:51:59;;;;;;;6.55;2.13;;;;;;;10.89;69.40;95005.72;4995973;28;20081;-76
2023/03/09 07:54:26;;;;;;;3.85;2.08;;;;;;;11.00;69.16;95007.56;4986856;28;20053;-75
2023/03/09 07:56:58;;;;;;;5.95;1.75;;;;;;;11.16;67.70;95019.16;4995989;28;20050;-76
2023/03/09 07:59:25;;;;;;;4.63;1.17;;;;;;;11.35;67.45;95030.34;4990066;28;20069;-77
2023/03/09 08:01:53;;;;;;;4.07;1.20;;;;;;;11.53;66.41;95027.63;4997295;28;20061;-76
2023/03/09 08:04:21;;;;;;;3.28;1.10;;;;;;;11.70;66.48;95027.75;4989096;28;20057;-77
2023/03/09 08:06:49;;;;;;;4.38;1.02;;;;;;;11.82;65.32;95025.13;4996887;28;20042;-77
2023/03/09 08:09:17;;;;;;;4.10;0.88;;;;;;;11.85;63.84;95026.47;5011492;28;20054;-77
2023/03/09 08:11:44;;;;;;;5.68;1.23;;;;;;;11.84;63.87;95043.97;4999468;28;20053;-76
2023/03/09 08:14:13;;;;;;;5.45;1.27;;;;;;;11.91;64.17;95047.28;4996383;28;20507;-76
2023/03/09 08:16:41;;;;;;;4.32;0.95;;;;;;;11.97;64.30;95052.66;4993761;28;20050;-76
2023/03/09 08:19:08;;;;;;;4.35;0.68;;;;;;;11.97;64.25;95047.41;4978375;28;20137;-76
2023/03/09 08:21:37;;;;;;;5.45;1.00;;;;;;;11.94;62.98;95064.34;4987153;28;20046;-76
2023/03/09 08:24:05;;;;;;;4.65;1.23;;;;;;;11.93;63.79;95058.31;5013758;28;20057;-76
2023/03/09 08:26:33;;;;;;;3.42;0.85;;;;;;;12.06;63.34;95080.03;4998586;28;20054;-77
2023/03/09 08:29:00;;;;;;;2.42;0.90;;;;;;;12.24;62.62;95077.28;4989371;28;20053;-77
2023/03/09 08:31:29;;;;;;;6.68;0.88;;;;;;;12.50;63.07;95078.59;4993525;28;20133;-76
2023/03/09 08:33:56;;;;;;;1.90;0.80;;;;;;;12.76;61.33;95086.94;5002025;28;20053;-76
2023/03/09 08:36:24;;;;;;;6.25;1.38;;;;;;;12.93;61.03;95094.88;4982877;28;20051;-76
2023/03/09 08:38:51;;;;;;;5.15;1.30;;;;;;;12.96;60.40;95097.00;4987476;28;20065;-76
2023/03/09 08:41:20;;;;;;;3.38;0.80;;;;;;;12.94;61.05;95102.50;5003988;28;20110;-77
2023/03/09 08:43:48;;;;;;;6.10;0.98;;;;;;;12.89;59.72;95096.34;4997514;28;20057;-78
2023/03/09 08:46:15;;;;;;;4.60;1.08;;;;;;;12.88;60.24;95115.69;4991479;28;20519;-77
2023/03/09 08:48:47;;;;;;;4.50;0.80;;;;;;;12.81;59.26;95115.81;5006440;28;20058;-77
2023/03/09 08:51:15;;;;;;;3.87;0.90;;;;;;;12.76;58.36;95113.91;4996525;28;20053;-77
2023/03/09 08:53:42;;;;;;;4.40;0.73;;;;;;;12.74;59.79;95121.19;4986786;28;20055;-76
2023/03/09 08:56:12;;;;;;;4.68;0.80;;;;;;;12.72;59.44;95128.47;4978296;28;20051;-77
2023/03/09 08:58:40;;;;;;;3.47;0.80;;;;;;;12.74;59.94;95141.34;4998377;28;20058;-77
2023/03/09 09:01:09;;;;;;;2.00;0.60;;;;;;;12.79;58.44;95144.06;4982058;28;20053;-76
2023/03/09 09:03:38;;;;;;;5.00;0.93;;;;;;;12.82;58.84;95143.59;4989551;28;20056;-76
2023/03/09 09:06:10;;;;;;;3.35;1.35;;;;;;;12.91;58.79;95133.56;4983549;28;20081;-77
2023/03/09 09:08:38;;;;;;;2.20;0.52;;;;;;;12.97;59.71;95151.75;5001389;28;20559;-77
2023/03/09 09:11:07;;;;;;;2.63;0.60;;;;;;;12.98;58.81;95160.38;4980150;28;20054;-77
2023/03/09 09:13:36;;;;;;;2.28;0.82;;;;;;;12.96;58.69;95150.16;4980608;28;20429;-76
2023/03/09 09:16:06;;;;;;;1.83;0.57;;;;;;;12.89;58.33;95148.69;4980857;28;20042;-76
2023/03/09 09:18:34;;;;;;;7.43;0.85;;;;;;;12.78;58.72;95145.09;4977190;28;20125;-76
2023/03/09 09:21:11;;;;;;;1.17;0.52;;;;;;;12.69;59.65;95147.25;4994732;28;20668;-76
2023/03/09 09:23:40;;;;;;;1.20;0.70;;;;;;;12.66;59.31;95160.00;4984132;28;20096;-79
2023/03/09 09:26:09;;;;;;;2.45;0.80;;;;;;;12.64;59.10;95165.47;4980303;28;20097;-76
2023/03/09 09:28:36;;;;;;;1.63;0.63;;;;;;;12.63;59.47;95165.69;4982062;28;20572;-75
2023/03/09 09:31:05;;;;;;;2.28;0.70;;;;;;;12.63;58.34;95168.31;4985032;28;20092;-76
2023/03/09 09:33:34;;;;;;;2.83;1.05;;;;;;;12.61;58.46;95160.69;4993540;28;20393;-76
2023/03/09 09:36:05;;;;;;;2.33;0.70;;;;;;;12.58;59.20;95179.47;4982853;28;20050;-76
2023/03/09 09:38:34;;;;;;;2.85;0.57;;;;;;;12.52;59.71;95196.84;4989239;28;20078;-76
2023/03/09 09:41:07;;;;;;;2.88;0.52;;;;;;;12.42;59.63;95182.75;4987105;28;20050;-76
2023/03/09 09:43:35;;;;;;;5.82;0.82;;;;;;;12.31;59.86;95184.34;4983270;28;20047;-75
2023/03/09 09:46:04;;;;;;;1.95;0.85;;;;;;;12.26;59.87;95181.63;4977626;28;20090;-75
2023/03/09 09:48:33;;;;;;;3.72;1.05;;;;;;;12.20;60.01;95183.34;4985706;28;20042;-76
2023/03/09 09:51:15;;;;;;;1.17;0.50;;;;;;;12.15;61.01;95184.00;4990490;28;20052;-77
2023/03/09 09:53:53;;;;;;;4.70;0.80;;;;;;;12.14;60.73;95192.09;4988229;28;20081;-76
2023/03/09 09:56:25;;;;;;;3.55;0.88;;;;;;;12.13;60.71;95198.31;4988306;28;20547;-75
2023/03/09 09:58:58;;;;;;;4.73;1.17;;;;;;;12.09;60.58;95200.59;4991416;28;20054;-77
2023/03/09 10:01:40;;;;;;;5.10;0.65;;;;;;;12.07;60.86;95199.22;5001387;28;20081;-76
2023/03/09 10:04:15;;;;;;;6.35;2.08;;;;;;;12.02;61.66;95206.94;4997175;28;20051;-76
2023/03/09 10:06:44;;;;;;;5.93;2.63;;;;;;;11.93;62.15;95236.00;4991186;28;20051;-74
2023/03/09 10:09:19;;;;;;;3.05;1.10;;;;;;;11.84;62.90;95229.47;4983458;28;20046;-76
2023/03/09 10:11:52;;;;;;;2.35;0.82;;;;;;;11.72;64.36;95233.88;4983347;28;20073;-76
2023/03/09 10:14:27;;;;;;;5.43;1.63;;;;;;;11.65;64.73;95238.38;5001985;28;20129;-77
2023/03/09 10:16:59;;;;;;;3.60;1.30;;;;;;;11.61;64.11;95221.56;4994378;28;20050;-76
2023/03/09 10:19:32;;;;;;;3.15;0.90;;;;;;;11.59;64.36;95218.38;4987533;28;20066;-77
2023/03/09 10:22:03;;;;;;;1.67;0.80;;;;;;;11.64;64.42;95221.13;4986522;28;20420;-76
2023/03/09 10:24:39;;;;;;;4.25;1.10;;;;;;;11.79;65.80;95228.56;4994053;28;20054;-75
2023/03/09 10:27:18;;;;;;;1.65;0.68;;;;;;;11.89;65.08;95237.47;4998073;28;20416;-76
2023/03/09 10:29:55;;;;;;;2.38;1.02;;;;;;;11.97;65.42;95235.56;4979952;28;20085;-76
2023/03/09 10:32:47;;;;;;;4.85;1.60;;;;;;;12.01;65.80;95236.72;4995109;28;20068;-76
2023/03/09 10:35:27;;;;;;;3.03;0.70;;;;;;;12.01;65.57;95229.66;5011530;28;20053;-76
2023/03/09 10:37:54;;;;;;;2.20;0.80;;;;;;;12.05;65.31;95243.88;4980830;28;20050;-76
2023/03/09 10:40:25;;;;;;;3.42;0.60;;;;;;;12.08;64.91;95232.19;4989285;28;20460;-75
2023/03/09 10:42:53;;;;;;;0.40;0.40;;;;;;;12.10;64.38;95241.38;4999536;28;20477;-76
2023/03/09 10:45:25;;;;;;;4.18;0.60;;;;;;;12.15;63.37;95243.31;4996582;28;20566;-76
2023/03/09 10:47:59;;;;;;;2.13;0.65;;;;;;;12.20;63.34;95242.66;4995074;28;20047;-76
2023/03/09 10:50:29;;;;;;;4.07;1.63;;;;;;;12.29;63.31;95239.50;5006584;28;20054;-76
2023/03/09 10:52:57;;;;;;;1.27;0.50;;;;;;;12.30;63.11;95246.31;5011247;28;20132;-76
2023/03/09 10:55:41;;;;;;;1.48;0.57;;;;;;;12.32;62.24;95244.25;5005254;28;20149;-77
2023/03/09 10:58:21;;;;;;;1.42;0.60;;;;;;;12.37;61.59;95251.44;4997574;28;20054;-76
2023/03/09 11:00:58;;;;;;;2.67;0.60;;;;;;;12.47;62.21;95251.69;5005719;28;20057;-77
2023/03/09 11:03:31;;;;;;;1.80;0.50;;;;;;;12.70;61.11;95261.38;5004988;28;20077;-77
2023/03/09 11:06:11;;;;;;;3.90;0.77;;;;;;;12.97;60.19;95256.44;5001365;28;20121;-76
2023/03/09 11:08:39;;;;;;;4.68;0.57;;;;;;;13.22;60.56;95257.22;5001083;28;20088;-76
2023/03/09 11:11:29;;;;;;;1.30;0.70;;;;;;;13.37;59.55;95260.16;4987081;28;20053;-76
2023/03/09 11:13:56;;;;;;;2.80;0.68;;;;;;;13.39;59.22;95264.13;4980421;28;20077;-76
2023/03/09 11:16:27;;;;;;;2.45;0.85;;;;;;;13.42;59.22;95273.34;4994434;28;20050;-77
2023/03/09 11:19:12;;;;;;;2.25;0.68;;;;;;;13.51;58.77;95279.03;5006705;28;20505;-76
2023/03/09 11:21:43;;;;;;;2.88;0.75;;;;;;;13.52;58.82;95270.94;4992088;28;20060;-77
2023/03/09 11:24:14;;;;;;;3.03;1.40;;;;;;;13.51;59.26;95271.97;4999847;28;20133;-77
2023/03/09 11:26:55;;;;;;;3.60;1.75;;;;;;;13.72;60.36;95282.84;4977706;28;20436;-79
2023/03/09 11:29:30;;;;;;;4.57;1.15;;;;;;;15.30;56.91;95286.41;5003069;28;20124;-77
2023/03/09 11:31:58;;;;;;;3.75;0.50;;;;;;;17.69;51.02;95284.19;4979663;28;20050;-76
2023/03/09 11:34:31;;;;;;;3.63;1.42;;;;;;;19.12;46.33;95286.16;5011008;23;20053;-82
2023/03/09 11:37:03;;;;;;;2.05;0.85;;;;;;;20.54;42.46;95280.47;5005932;28;20115;-80
2023/03/09 11:39:34;;;;;;;3.22;0.68;;;;;;;21.21;39.07;95285.22;5000617;28;20461;-79
2023/03/09 11:42:10;;;;;;;3.60;0.80;;;;;;;21.19;39.98;95287.34;5009461;28;20057;-79
2023/03/09 11:44:41;;;;;;;2.47;0.65;;;;;;;20.90;40.42;95288.16;4986293;28;20051;-81
2023/03/09 11:47:22;;;;;;;2.22;0.60;;;;;;;20.06;41.40;95276.84;4985555;28;20398;-84
2023/03/09 11:49:51;;;;;;;2.22;0.57;;;;;;;19.42;42.41;95283.72;4964620;29;20142;-79
2023/03/09 11:52:24;;;;;;;2.25;0.60;;;;;;;19.93;42.54;95273.72;4988669;28;20578;-80
2023/03/09 11:54:55;;;;;;;1.83;0.80;;;;;;;20.72;39.72;95280.91;4979759;28;20047;-77
2023/03/09 11:57:27;;;;;;;1.80;0.55;;;;;;;20.77;38.90;95267.59;4985099;28;20050;-77
2023/03/09 11:59:59;;;;;;;1.55;0.30;;;;;;;19.95;41.33;95274.25;4986650;28;20051;-80
2023/03/09 12:02:34;;;;;;;1.90;0.93;;;;;;;19.33;42.44;95260.47;4964814;28;20445;-78